Time;durP1;ratioP1;P1;durP2;ratioP2;P2;SDS_P1;SDS_P2;PMS_P1;PMS_P2;Temp;Humidity;BMP_temperature;BMP_pressure;BME280_temperature;BME280_humidity;BME280_pressure;Samples;Min_cycle;Max_cycle;Signal;HPM_P1;HPM_P2
2022/01/14 00:01:55;;;;;;;30.63;15.55;;;1.50;99.90;;;;;;5030490;28;20046;-83
2022/01/14 00:04:21;;;;;;;31.92;15.77;;;1.50;99.90;;;;;;5013358;28;20029;-84
2022/01/14 00:06:47;;;;;;;29.20;15.20;;;1.80;99.90;;;;;;5019706;28;20077;-82
2022/01/14 00:09:14;;;;;;;30.52;14.77;;;1.60;99.90;;;;;;5016268;28;20030;-81
2022/01/14 00:11:53;;;;;;;28.85;14.48;;;1.50;99.90;;;;;;5019140;28;20042;-81
2022/01/14 00:17:03;;;;;;;26.48;13.63;;;1.50;99.90;;;;;;5017259;28;20045;-81
2022/01/14 00:19:28;;;;;;;27.33;14.60;;;1.40;99.90;;;;;;5001259;28;20025;-80
2022/01/14 00:21:54;;;;;;;26.55;13.38;;;4.10;99.90;;;;;;5018764;28;20027;-81
2022/01/14 00:32:13;;;;;;;31.92;15.02;;;1.40;99.90;;;;;;5015189;28;20096;-79
2022/01/14 00:34:39;;;;;;;30.50;15.63;;;1.40;99.90;;;;;;5017592;28;20064;-81
2022/01/14 00:37:05;;;;;;;31.40;15.63;;;1.50;99.90;;;;;;5006933;28;20061;-81
2022/01/14 00:39:31;;;;;;;31.83;16.15;;;1.20;99.90;;;;;;5012909;28;20030;-80
2022/01/14 00:41:56;;;;;;;33.78;15.60;;;2.50;99.90;;;;;;5012521;28;20014;-80
2022/01/14 00:44:22;;;;;;;34.80;17.48;;;2.40;99.90;;;;;;5026019;28;20045;-79
2022/01/14 00:46:49;;;;;;;28.88;15.52;;;1.20;99.90;;;;;;5014830;28;20045;-83
2022/01/14 00:49:17;;;;;;;28.65;14.38;;;1.40;99.90;;;;;;5030168;28;20014;-78
2022/01/14 00:51:43;;;;;;;28.67;16.08;;;1.40;99.90;;;;;;5005905;28;20061;-85
2022/01/14 00:54:11;;;;;;;26.05;13.73;;;1.40;99.90;;;;;;5004407;28;20034;-82
2022/01/14 00:59:14;;;;;;;28.65;14.13;;;2.80;99.90;;;;;;5018746;28;20050;-81
2022/01/14 01:01:45;;;;;;;28.33;13.60;;;1.40;99.90;;;;;;5010370;28;20042;-83
2022/01/14 01:04:13;;;;;;;31.75;14.07;;;1.40;99.90;;;;;;5016532;28;20046;-83
2022/01/14 01:06:40;;;;;;;28.95;13.18;;;1.40;99.90;;;;;;5025437;28;20021;-83
2022/01/14 01:09:11;;;;;;;27.10;13.57;;;1.40;99.90;;;;;;5003059;28;20026;-82
2022/01/14 01:11:47;;;;;;;30.98;14.80;;;1.30;99.90;;;;;;5021428;28;20469;-81
2022/01/14 01:14:18;;;;;;;26.33;13.88;;;1.40;99.90;;;;;;5004952;28;20037;-80
2022/01/14 01:16:44;;;;;;;;;;;1.30;99.90;;;;;;5009643;28;20034;-81
2022/01/14 01:19:10;;;;;;;27.23;12.90;;;1.90;99.90;;;;;;5022948;28;20043;-80
2022/01/14 01:21:36;;;;;;;28.65;14.55;;;2.90;99.90;;;;;;5028307;28;20097;-84
2022/01/14 01:24:02;;;;;;;28.55;14.00;;;1.20;99.90;;;;;;5000086;28;20442;-81
2022/01/14 01:26:35;;;;;;;29.00;14.27;;;1.20;99.90;;;;;;5022149;28;20032;-82
2022/01/14 01:31:40;;;;;;;25.60;13.30;;;1.20;99.90;;;;;;5028239;28;20028;-86
2022/01/14 01:34:08;;;;;;;25.90;13.48;;;3.20;99.90;;;;;;5004232;28;20042;-84
2022/01/14 01:36:36;;;;;;;25.15;12.98;;;2.30;99.90;;;;;;5031212;28;20088;-82
2022/01/14 01:39:05;;;;;;;27.85;14.00;;;3.50;99.90;;;;;;5029194;28;20057;-86
2022/01/14 01:41:31;;;;;;;29.77;13.52;;;1.20;99.90;;;;;;5028637;28;20056;-82
2022/01/14 01:43:59;;;;;;;25.30;13.02;;;1.20;99.90;;;;;;5010903;28;20037;-86
2022/01/14 01:46:25;;;;;;;30.63;14.27;;;1.00;99.90;;;;;;4997819;28;20036;-81
2022/01/14 01:48:52;;;;;;;26.05;13.43;;;1.10;99.90;;;;;;5016292;28;20101;-83
2022/01/14 01:51:20;;;;;;;26.55;13.55;;;1.20;99.90;;;;;;5010521;28;20022;-83
2022/01/14 01:53:47;;;;;;;25.27;13.30;;;1.10;99.90;;;;;;5013479;28;20040;-81
2022/01/14 01:56:13;;;;;;;27.02;14.25;;;1.90;99.90;;;;;;5012279;28;20066;-84
2022/01/14 01:58:40;;;;;;;29.70;15.50;;;;;;;;;;5016516;28;20076;-82
2022/01/14 02:01:07;;;;;;;28.35;14.77;;;1.10;99.90;;;;;;5011575;28;20045;-80
2022/01/14 02:03:37;;;;;;;33.60;16.25;;;1.00;99.90;;;;;;5005214;28;20055;-83
2022/01/14 02:06:04;;;;;;;30.63;14.55;;;1.00;99.90;;;;;;5025531;28;20030;-80
2022/01/14 02:08:30;;;;;;;33.55;16.02;;;2.40;99.90;;;;;;5012913;28;20026;-83
2022/01/14 02:10:56;;;;;;;34.03;17.25;;;1.10;99.90;;;;;;5014550;28;20034;-84
2022/01/14 02:13:22;;;;;;;31.30;16.50;;;1.00;99.90;;;;;;5011121;28;20040;-83
2022/01/14 02:18:32;;;;;;;28.83;14.68;;;1.10;99.90;;;;;;5026645;28;20045;-81
2022/01/14 02:23:48;;;;;;;32.15;14.57;;;2.50;99.90;;;;;;5030141;28;20042;-85
2022/01/14 02:26:17;;;;;;;30.00;14.23;;;1.10;99.90;;;;;;5006993;28;20029;-86
2022/01/14 02:28:43;;;;;;;28.10;14.00;;;1.00;99.90;;;;;;5009563;28;20033;-80
2022/01/14 02:31:09;;;;;;;27.73;13.20;;;1.00;99.90;;;;;;5008446;28;20052;-82
2022/01/14 02:33:35;;;;;;;27.58;13.88;;;0.80;99.90;;;;;;5005840;28;20026;-81
2022/01/14 02:36:02;;;;;;;30.95;14.43;;;1.00;99.90;;;;;;5007562;28;20042;-81
2022/01/14 02:38:29;;;;;;;30.50;14.75;;;1.00;99.90;;;;;;5020497;28;20049;-82
2022/01/14 02:40:55;;;;;;;28.90;14.07;;;1.10;99.90;;;;;;5004890;28;20058;-82
2022/01/14 02:43:21;;;;;;;30.33;14.52;;;1.00;99.90;;;;;;5023544;28;20021;-82
2022/01/14 02:45:51;;;;;;;30.55;15.38;;;2.00;99.90;;;;;;5011223;28;20491;-84
2022/01/14 02:48:19;;;;;;;26.85;13.73;;;-0.20;99.90;;;;;;5009454;28;20102;-85
2022/01/14 02:51:00;;;;;;;29.85;14.55;;;1.00;99.90;;;;;;5023855;28;20030;-82
2022/01/14 02:53:44;;;;;;;27.98;13.30;;;0.80;99.90;;;;;;5010500;28;20551;-82
2022/01/14 02:56:19;;;;;;;28.23;14.55;;;1.00;99.90;;;;;;5011824;28;20033;-82
2022/01/14 02:58:47;;;;;;;29.75;15.05;;;1.00;99.90;;;;;;5011761;28;20037;-82
2022/01/14 03:01:16;;;;;;;30.92;15.32;;;1.00;99.90;;;;;;5032034;28;20061;-84
2022/01/14 03:03:45;;;;;;;30.73;14.95;;;1.00;99.90;;;;;;5028501;28;20060;-84
2022/01/14 03:06:12;;;;;;;35.70;15.02;;;1.30;99.90;;;;;;5024840;28;20418;-82
2022/01/14 03:08:38;;;;;;;31.00;14.90;;;1.00;99.90;;;;;;5028244;28;20048;-83
2022/01/14 03:11:26;;;;;;;30.75;14.23;;;3.00;99.90;;;;;;5012902;28;20093;-81
2022/01/14 03:13:52;;;;;;;26.95;14.57;;;0.90;99.90;;;;;;5013583;28;20025;-82
2022/01/14 03:16:20;;;;;;;27.52;14.27;;;0.90;99.90;;;;;;5032799;28;20030;-81
2022/01/14 03:18:50;;;;;;;30.23;14.20;;;0.80;99.90;;;;;;5029951;28;20414;-83
2022/01/14 03:21:24;;;;;;;29.95;15.43;;;0.80;99.90;;;;;;5016733;28;20033;-79
2022/01/14 03:24:02;;;;;;;26.52;13.38;;;1.10;99.90;;;;;;5032800;28;20046;-81
2022/01/14 03:26:28;;;;;;;29.02;13.98;;;0.70;99.90;;;;;;5026467;23;20045;-81
2022/01/14 03:28:55;;;;;;;26.13;13.27;;;0.80;99.90;;;;;;5023643;28;20441;-81
2022/01/14 03:31:21;;;;;;;30.42;14.27;;;0.90;99.90;;;;;;5042666;28;20033;-82
2022/01/14 03:33:47;;;;;;;29.67;13.07;;;0.90;99.90;;;;;;5021073;28;20193;-83
2022/01/14 03:36:14;;;;;;;23.73;12.02;;;0.80;99.90;;;;;;5042850;28;20029;-80
2022/01/14 03:38:39;;;;;;;29.02;12.40;;;1.40;99.90;;;;;;5021327;28;20045;-81
2022/01/14 03:41:06;;;;;;;24.55;12.57;;;0.90;99.90;;;;;;5017621;28;20541;-81
2022/01/14 03:43:36;;;;;;;25.40;12.68;;;1.20;99.90;;;;;;5038241;28;20029;-81
2022/01/14 03:46:02;;;;;;;28.08;13.10;;;3.30;99.90;;;;;;5010884;28;20037;-79
2022/01/14 03:48:28;;;;;;;26.17;12.77;;;0.80;99.90;;;;;;5039052;28;20025;-83
2022/01/14 03:50:54;;;;;;;28.88;13.50;;;0.90;99.90;;;;;;5026707;28;20068;-80
2022/01/14 03:53:20;;;;;;;24.33;11.55;;;0.90;99.90;;;;;;5024407;28;20134;-84
2022/01/14 03:55:45;;;;;;;23.45;12.10;;;0.70;99.90;;;;;;5042544;28;20029;-86
2022/01/14 03:58:11;;;;;;;23.50;11.88;;;3.10;99.90;;;;;;5023547;28;20525;-82
2022/01/14 04:00:37;;;;;;;24.08;12.70;;;3.20;99.90;;;;;;5025204;28;20034;-81
2022/01/14 04:03:05;;;;;;;27.67;12.75;;;0.80;99.90;;;;;;5023418;28;20037;-81
2022/01/14 04:05:30;;;;;;;25.33;11.80;;;0.80;99.90;;;;;;5024198;28;20144;-83
2022/01/14 04:07:56;;;;;;;24.92;12.98;;;3.10;99.90;;;;;;5021943;28;20029;-83
2022/01/14 04:10:22;;;;;;;25.75;12.57;;;2.30;99.90;;;;;;5031522;28;20053;-82
2022/01/14 04:12:52;;;;;;;28.63;13.15;;;2.70;99.90;;;;;;5048689;28;20076;-83
2022/01/14 04:15:37;;;;;;;28.55;13.55;;;0.70;99.90;;;;;;5033980;28;20056;-82
2022/01/14 04:18:08;;;;;;;31.40;14.50;;;0.50;99.90;;;;;;5022776;28;20030;-83
2022/01/14 04:20:35;;;;;;;29.00;14.68;;;0.70;99.90;;;;;;5045863;28;20029;-80
2022/01/14 04:23:02;;;;;;;36.50;15.90;;;0.60;99.90;;;;;;5046175;28;20117;-82
2022/01/14 04:25:28;;;;;;;31.67;15.55;;;2.60;99.90;;;;;;5003719;28;20036;-82
2022/01/14 04:27:54;;;;;;;29.02;14.43;;;0.60;99.90;;;;;;5026730;28;20032;-85
2022/01/14 04:30:22;;;;;;;28.70;15.18;;;0.60;99.90;;;;;;5028613;28;20512;-81
2022/01/14 04:32:48;;;;;;;33.72;16.58;;;;;;;;;;5031016;28;20092;-84
2022/01/14 04:35:14;;;;;;;35.38;15.65;;;;;;;;;;5028650;28;20029;-84
2022/01/14 04:37:41;;;;;;;33.42;16.55;;;0.60;99.90;;;;;;5048786;28;20029;-83
2022/01/14 04:40:07;;;;;;;36.35;16.83;;;1.30;99.90;;;;;;5017697;28;20034;-82
2022/01/14 04:42:33;;;;;;;35.92;17.42;;;0.60;99.90;;;;;;5033710;28;20040;-82
2022/01/14 04:44:59;;;;;;;38.95;17.35;;;0.60;99.90;;;;;;5011478;28;20089;-83
2022/01/14 04:47:44;;;;;;;38.90;18.23;;;0.40;99.90;;;;;;5044276;28;20049;-83
2022/01/14 04:50:15;;;;;;;30.73;14.57;;;3.30;99.90;;;;;;5017661;28;20037;-84
2022/01/14 04:52:42;;;;;;;;;;;0.70;99.90;;;;;;5019407;28;20475;-84
2022/01/14 04:55:12;;;;;;;30.95;14.52;;;1.40;99.90;;;;;;5026101;28;19916;-85
2022/01/14 04:57:39;;;;;;;32.60;15.82;;;0.70;99.90;;;;;;5037750;28;20049;-85
2022/01/14 05:00:21;;;;;;;27.67;13.88;;;0.70;99.90;;;;;;5016415;28;20052;-82
2022/01/14 05:02:47;;;;;;;27.75;14.35;;;1.40;99.90;;;;;;5033664;28;20478;-83
2022/01/14 05:05:15;;;;;;;26.02;13.40;;;0.70;99.90;;;;;;5026267;28;20057;-83
2022/01/14 05:07:43;;;;;;;25.13;12.60;;;0.70;99.90;;;;;;5052385;28;20025;-83
2022/01/14 05:10:20;;;;;;;24.38;11.90;;;0.60;99.90;;;;;;5060136;28;20018;-83
2022/01/14 05:12:46;;;;;;;29.27;12.25;;;0.60;99.90;;;;;;5038889;28;20089;-82
2022/01/14 05:15:13;;;;;;;23.13;11.38;;;2.50;99.90;;;;;;5037719;28;20052;-82
2022/01/14 05:17:39;;;;;;;25.13;12.98;;;0.60;99.90;;;;;;5033988;28;20021;-84
2022/01/14 05:20:05;;;;;;;23.48;12.90;;;0.60;99.90;;;;;;5051156;28;20040;-82
2022/01/14 05:22:31;;;;;;;31.83;13.52;;;0.60;99.90;;;;;;5047918;28;20064;-82
2022/01/14 05:24:57;;;;;;;29.83;13.70;;;0.40;99.90;;;;;;5046649;28;20034;-83
2022/01/14 05:27:23;;;;;;;31.65;13.57;;;0.50;99.90;;;;;;5023871;28;20090;-84
2022/01/14 05:29:51;;;;;;;31.98;14.25;;;2.30;99.90;;;;;;5021211;28;20026;-84
2022/01/14 05:32:18;;;;;;;32.25;14.52;;;;;;;;;;5012613;28;20034;-80
2022/01/14 05:34:45;;;;;;;26.92;13.10;;;0.50;99.90;;;;;;5045033;28;20120;-81
2022/01/14 05:37:11;;;;;;;27.88;14.38;;;;;;;;;;5026329;28;20045;-81
2022/01/14 05:39:37;;;;;;;26.30;14.35;;;;;;;;;;5016534;28;20088;-85
2022/01/14 05:42:05;;;;;;;30.98;13.88;;;0.50;99.90;;;;;;5027430;28;20052;-81
2022/01/14 05:44:31;;;;;;;29.70;14.20;;;0.50;99.90;;;;;;5021314;28;20042;-84
2022/01/14 05:46:59;;;;;;;29.33;13.98;;;1.90;99.90;;;;;;5013580;28;20075;-82
2022/01/14 05:49:25;;;;;;;31.00;13.25;;;3.30;99.90;;;;;;5032863;28;20048;-83
2022/01/14 05:51:50;;;;;;;28.92;13.15;;;2.60;99.90;;;;;;5025715;28;20025;-82
2022/01/14 05:54:18;;;;;;;30.45;14.07;;;0.40;99.90;;;;;;5027518;28;20057;-81
2022/01/14 05:56:43;;;;;;;29.95;13.32;;;1.10;99.90;;;;;;5041160;28;20025;-82
2022/01/14 05:59:10;;;;;;;29.35;13.63;;;2.80;99.90;;;;;;5027510;28;20021;-81
2022/01/14 06:01:36;;;;;;;27.98;14.40;;;0.50;99.90;;;;;;5033764;28;20092;-83
2022/01/14 06:04:03;;;;;;;31.17;14.55;;;1.00;99.90;;;;;;5026584;28;20041;-83
2022/01/14 06:06:29;;;;;;;29.67;14.00;;;0.60;99.90;;;;;;5028004;28;20044;-84
2022/01/14 06:08:55;;;;;;;26.95;13.00;;;;;;;;;;5030171;28;20030;-82
2022/01/14 06:11:21;;;;;;;27.73;12.65;;;;;;;;;;5031438;28;20033;-83
2022/01/14 06:13:47;;;;;;;28.42;13.35;;;;;;;;;;5025193;28;20033;-82
2022/01/14 06:16:13;;;;;;;28.80;13.93;;;0.50;99.90;;;;;;5046282;28;21015;-84
2022/01/14 06:18:39;;;;;;;25.38;12.63;;;0.50;99.90;;;;;;5028671;28;20059;-83
2022/01/14 06:21:05;;;;;;;24.58;12.45;;;0.50;99.90;;;;;;5038245;28;20097;-84
2022/01/14 06:23:31;;;;;;;22.35;10.88;;;3.00;99.90;;;;;;5050079;28;20045;-83
2022/01/14 06:25:57;;;;;;;19.92;10.57;;;2.00;99.90;;;;;;5015198;28;20043;-83
2022/01/14 06:28:26;;;;;;;25.17;12.02;;;3.00;99.90;;;;;;5026349;28;20022;-82
2022/01/14 06:30:52;;;;;;;22.65;10.93;;;;;;;;;;5034670;28;20021;-82
2022/01/14 06:33:18;;;;;;;23.33;11.95;;;0.60;99.90;;;;;;5030579;28;20169;-82
2022/01/14 06:35:44;;;;;;;23.88;10.82;;;1.90;99.90;;;;;;5017632;28;20580;-81
2022/01/14 06:38:10;;;;;;;21.90;11.35;;;0.60;99.90;;;;;;5040037;28;20048;-81
2022/01/14 06:40:36;;;;;;;20.67;11.55;;;2.20;99.90;;;;;;5018579;28;20337;-81
2022/01/14 06:43:04;;;;;;;28.38;12.05;;;0.40;99.90;;;;;;5039152;28;20036;-80
2022/01/14 06:45:31;;;;;;;25.35;10.68;;;0.60;99.90;;;;;;5014627;28;20025;-80
2022/01/14 06:47:56;;;;;;;25.65;11.48;;;1.00;99.90;;;;;;5032111;28;20026;-82
2022/01/14 06:50:22;;;;;;;25.40;12.05;;;2.80;99.90;;;;;;5019471;28;20048;-83
2022/01/14 06:52:48;;;;;;;23.65;11.23;;;;;;;;;;5037281;28;20064;-83
2022/01/14 06:55:14;;;;;;;24.73;11.80;;;0.60;99.90;;;;;;5022245;28;20034;-83
2022/01/14 06:57:40;;;;;;;23.63;10.90;;;1.60;99.90;;;;;;5008251;28;20036;-83
2022/01/14 07:00:11;;;;;;;23.27;11.60;;;0.60;99.90;;;;;;5020375;28;20359;-82
2022/01/14 07:02:37;;;;;;;;;;;0.60;99.90;;;;;;5032372;28;20061;-83
2022/01/14 07:05:07;;;;;;;21.35;10.88;;;0.90;99.90;;;;;;5026263;28;19913;-82
2022/01/14 07:07:33;;;;;;;20.50;9.93;;;;;;;;;;5039138;28;20050;-84
2022/01/14 07:10:00;;;;;;;24.40;11.55;;;0.60;99.90;;;;;;5041071;28;20040;-80
2022/01/14 07:12:31;;;;;;;23.48;9.88;;;0.60;99.90;;;;;;5027467;28;20033;-81
2022/01/14 07:14:56;;;;;;;;;;;0.60;99.90;;;;;;5027193;28;20030;-83
2022/01/14 07:17:23;;;;;;;23.10;10.00;;;;;;;;;;5029150;28;20371;-84
2022/01/14 07:19:51;;;;;;;18.45;9.15;;;0.60;99.90;;;;;;5029572;28;20470;-82
2022/01/14 07:22:20;;;;;;;25.73;11.27;;;0.50;99.90;;;;;;5014832;28;20486;-84
2022/01/14 07:24:46;;;;;;;25.48;11.10;;;1.70;99.90;;;;;;5031717;28;20040;-82
2022/01/14 07:27:13;;;;;;;21.80;11.25;;;0.60;99.90;;;;;;5020803;28;20092;-83
2022/01/14 07:29:38;;;;;;;21.15;10.27;;;0.90;99.90;;;;;;5027181;28;20049;-85
2022/01/14 07:32:05;;;;;;;25.23;12.70;;;3.10;99.90;;;;;;5039086;28;20040;-82
2022/01/14 07:34:30;;;;;;;26.27;12.43;;;0.60;99.90;;;;;;5044923;28;20021;-84
2022/01/14 07:36:56;;;;;;;26.75;11.57;;;2.80;99.90;;;;;;5024440;28;20110;-84
2022/01/14 07:39:23;;;;;;;24.02;11.35;;;0.50;99.90;;;;;;5028034;28;20038;-81
2022/01/14 07:41:52;;;;;;;24.88;12.52;;;0.60;99.90;;;;;;5028517;28;20033;-82
2022/01/14 07:44:21;;;;;;;23.85;12.32;;;0.60;99.90;;;;;;5046785;28;20036;-84
2022/01/14 07:46:47;;;;;;;28.02;13.75;;;;;;;;;;5046909;28;20033;-81
2022/01/14 07:49:13;;;;;;;24.90;12.52;;;;;;;;;;5051113;28;20096;-83
2022/01/14 07:51:39;;;;;;;24.58;12.70;;;;;;;;;;5034740;28;20032;-81
2022/01/14 07:54:05;;;;;;;27.35;12.52;;;0.60;99.90;;;;;;5043105;28;20432;-80
2022/01/14 07:56:33;;;;;;;27.75;12.13;;;0.60;99.90;;;;;;5040089;28;20025;-81
2022/01/14 07:59:00;;;;;;;24.95;12.85;;;1.20;99.90;;;;;;5029731;28;20033;-80
2022/01/14 08:01:27;;;;;;;24.83;12.05;;;0.70;99.90;;;;;;5033835;28;20034;-81
2022/01/14 08:03:53;;;;;;;22.73;12.18;;;;;;;;;;5050121;28;20085;-82
2022/01/14 08:06:19;;;;;;;26.80;12.48;;;;;;;;;;5033242;28;20026;-81
2022/01/14 08:08:45;;;;;;;27.95;12.93;;;0.70;99.90;;;;;;5032146;28;20033;-84
2022/01/14 08:11:11;;;;;;;28.52;12.45;;;;;;;;;;5033018;28;20176;-81
2022/01/14 08:13:37;;;;;;;21.30;11.45;;;0.70;99.90;;;;;;5033331;28;20087;-81
2022/01/14 08:16:03;;;;;;;25.55;12.70;;;2.10;99.90;;;;;;5050593;28;20025;-81
2022/01/14 08:18:28;;;;;;;26.15;13.00;;;0.70;99.90;;;;;;5024544;28;20029;-80
2022/01/14 08:20:56;;;;;;;28.50;14.07;;;;;;;;;;5032807;28;20363;-83
2022/01/14 08:23:22;;;;;;;28.75;14.30;;;0.70;99.90;;;;;;5037767;28;20120;-81
2022/01/14 08:25:52;;;;;;;31.23;15.68;;;;;;;;;;5032878;28;20037;-85
2022/01/14 08:28:19;;;;;;;31.30;15.25;;;;;;;;;;5032904;28;20045;-81
2022/01/14 08:30:44;;;;;;;30.83;14.35;;;0.70;99.90;;;;;;5050421;28;20072;-81
2022/01/14 08:33:12;;;;;;;33.03;14.88;;;;;;;;;;5032426;28;20101;-81
2022/01/14 08:35:41;;;;;;;33.85;15.68;;;0.80;99.90;;;;;;5051216;28;20061;-84
2022/01/14 08:38:07;;;;;;;35.55;15.55;;;;;;;;;;5032350;28;20206;-83
2022/01/14 08:40:33;;;;;;;30.98;14.55;;;0.90;99.90;;;;;;5051475;28;20017;-82
2022/01/14 08:43:03;;;;;;;33.10;15.43;;;0.90;99.90;;;;;;5043071;28;20037;-81
2022/01/14 08:45:29;;;;;;;31.67;15.93;;;0.90;99.90;;;;;;5035491;28;20029;-82
2022/01/14 08:47:55;;;;;;;30.67;15.50;;;0.90;99.90;;;;;;5021981;28;20075;-81
2022/01/14 08:50:24;;;;;;;30.58;14.75;;;1.10;99.90;;;;;;5049233;28;20031;-81
2022/01/14 08:52:50;;;;;;;30.55;15.57;;;;;;;;;;5031499;28;20029;-81
2022/01/14 08:55:17;;;;;;;29.38;15.73;;;1.30;99.90;;;;;;5029638;28;20060;-84
2022/01/14 08:57:47;;;;;;;29.30;14.05;;;2.10;99.90;;;;;;5027631;28;20037;-80
2022/01/14 09:00:15;;;;;;;27.30;14.10;;;1.10;99.90;;;;;;5025637;28;20026;-84
2022/01/14 09:02:41;;;;;;;31.20;15.00;;;;;;;;;;5019285;28;20029;-83
2022/01/14 09:05:08;;;;;;;35.33;14.38;;;1.20;99.90;;;;;;5018257;28;20053;-86
2022/01/14 09:07:35;;;;;;;31.33;15.07;;;1.30;99.90;;;;;;5025164;28;20049;-83
2022/01/14 09:10:01;;;;;;;34.33;15.18;;;1.30;99.90;;;;;;5033442;28;20025;-82
2022/01/14 09:12:27;;;;;;;32.45;15.40;;;1.20;99.90;;;;;;5032616;28;20053;-84
2022/01/14 09:14:53;;;;;;;31.65;14.32;;;;;;;;;;5025313;28;20061;-83
2022/01/14 09:17:19;;;;;;;28.90;14.70;;;1.30;99.90;;;;;;5046109;28;20040;-84
2022/01/14 09:19:45;;;;;;;26.63;14.85;;;1.40;99.90;;;;;;5026342;28;20025;-81
2022/01/14 09:22:15;;;;;;;30.13;14.68;;;1.70;99.90;;;;;;5049422;28;20494;-82
2022/01/14 09:24:42;;;;;;;29.63;14.20;;;1.50;99.90;;;;;;5031994;28;20029;-84
2022/01/14 09:27:08;;;;;;;30.30;14.32;;;2.00;99.90;;;;;;5032361;28;20060;-83
2022/01/14 09:29:34;;;;;;;27.67;14.10;;;1.50;99.90;;;;;;5031032;28;20017;-83
2022/01/14 09:32:00;;;;;;;28.60;14.55;;;1.60;99.90;;;;;;5026139;28;20026;-82
2022/01/14 09:34:26;;;;;;;28.58;14.05;;;1.90;99.90;;;;;;5013321;28;20026;-85
2022/01/14 09:36:52;;;;;;;26.98;13.73;;;;;;;;;;5013446;28;20044;-83
2022/01/14 09:39:18;;;;;;;27.35;14.05;;;1.70;99.90;;;;;;5032193;28;20116;-83
2022/01/14 09:41:45;;;;;;;27.60;14.25;;;1.70;99.90;;;;;;5054696;28;20463;-83
2022/01/14 09:44:14;;;;;;;24.38;13.40;;;2.00;99.90;;;;;;5039045;28;20029;-84
2022/01/14 09:46:40;;;;;;;27.67;13.40;;;3.60;99.90;;;;;;5034233;28;20026;-83
2022/01/14 09:49:06;;;;;;;26.27;14.40;;;1.90;99.90;;;;;;5031374;28;20030;-85
2022/01/14 09:51:31;;;;;;;27.42;13.85;;;4.30;99.90;;;;;;5013238;28;20076;-84
2022/01/14 09:53:57;;;;;;;28.30;15.18;;;;;;;;;;5014352;28;20033;-85
2022/01/14 09:56:24;;;;;;;28.38;14.88;;;2.10;99.90;;;;;;5014279;28;20065;-82
2022/01/14 09:58:52;;;;;;;32.88;15.35;;;2.80;99.90;;;;;;5013267;28;20054;-86
2022/01/14 10:01:22;;;;;;;32.22;15.73;;;3.60;99.90;;;;;;5021298;28;20037;-86
2022/01/14 10:03:53;;;;;;;30.75;15.10;;;1.90;99.90;;;;;;5033381;28;20033;-84
2022/01/14 10:06:38;;;;;;;27.40;13.95;;;2.30;99.90;;;;;;5026728;28;20030;-82
2022/01/14 10:09:19;;;;;;;32.38;15.43;;;2.40;99.90;;;;;;5031143;28;20002;-87
2022/01/14 10:12:00;;;;;;;34.67;15.93;;;2.60;99.90;;;;;;5040846;28;20044;-82
2022/01/14 10:14:26;;;;;;;31.83;14.45;;;1.30;99.90;;;;;;5033394;28;20033;-82
2022/01/14 10:16:57;;;;;;;28.20;14.32;;;3.70;99.90;;;;;;5036588;28;20029;-84
2022/01/14 10:19:29;;;;;;;23.45;12.95;;;2.70;99.90;;;;;;5053305;28;20032;-84
2022/01/14 10:21:55;;;;;;;25.70;14.27;;;5.40;99.90;;;;;;5043129;28;20036;-81
2022/01/14 10:24:31;;;;;;;29.52;15.65;;;2.90;99.90;;;;;;5030917;28;20034;-82
2022/01/14 10:27:00;;;;;;;25.67;13.95;;;2.90;99.90;;;;;;5031039;28;20057;-85
2022/01/14 10:29:38;;;;;;;30.30;14.18;;;4.70;99.90;;;;;;5026460;28;20029;-83
2022/01/14 10:32:07;;;;;;;26.23;13.70;;;2.80;99.90;;;;;;5033192;28;20037;-86
2022/01/14 10:34:36;;;;;;;25.20;12.82;;;3.10;99.90;;;;;;5037822;28;20077;-84
2022/01/14 10:37:13;;;;;;;24.70;13.00;;;3.10;99.90;;;;;;5037542;28;20041;-85
2022/01/14 10:39:44;;;;;;;26.77;13.27;;;3.20;99.90;;;;;;5029907;28;20018;-85
2022/01/14 10:42:28;;;;;;;26.00;14.20;;;3.30;99.90;;;;;;5022647;28;20038;-87
2022/01/14 10:44:55;;;;;;;28.33;12.82;;;3.40;99.90;;;;;;5017043;28;20116;-85
2022/01/14 10:47:23;;;;;;;27.00;13.75;;;3.50;99.90;;;;;;5027719;28;20030;-83
2022/01/14 10:49:55;;;;;;;28.63;13.38;;;6.00;99.90;;;;;;5041515;28;20032;-81
2022/01/14 10:52:23;;;;;;;29.30;14.13;;;3.70;99.90;;;;;;5017406;28;20033;-86
2022/01/14 10:54:51;;;;;;;27.25;13.73;;;3.70;99.90;;;;;;5025948;28;20032;-85
2022/01/14 10:57:22;;;;;;;26.52;13.88;;;3.80;99.90;;;;;;5029753;28;20218;-85
2022/01/14 10:59:50;;;;;;;26.08;13.82;;;3.90;99.90;;;;;;5026503;28;20039;-84
2022/01/14 11:02:35;;;;;;;30.52;13.85;;;3.90;99.90;;;;;;5027266;28;20093;-83
2022/01/14 11:05:14;;;;;;;26.02;12.70;;;4.00;99.90;;;;;;5023542;28;20084;-83
2022/01/14 11:07:41;;;;;;;28.38;13.10;;;4.00;99.90;;;;;;5022315;28;20040;-84
2022/01/14 11:10:23;;;;;;;28.45;13.75;;;4.10;99.90;;;;;;5018567;28;20030;-83
2022/01/14 11:12:50;;;;;;;26.00;12.77;;;4.20;99.90;;;;;;5023541;28;20025;-83
2022/01/14 11:15:20;;;;;;;25.50;13.02;;;4.40;99.90;;;;;;5039651;28;20032;-86
2022/01/14 11:17:51;;;;;;;24.73;13.50;;;4.30;99.90;;;;;;5014911;28;20050;-84
2022/01/14 11:20:25;;;;;;;25.80;13.05;;;5.70;99.90;;;;;;5012304;28;20037;-86
2022/01/14 11:25:44;;;;;;;23.17;13.98;;;4.50;99.90;;;;;;5042964;28;20098;-83
2022/01/14 11:28:11;;;;;;;25.50;12.77;;;4.50;99.90;;;;;;5037024;28;20060;-83
2022/01/14 11:30:39;;;;;;;35.40;16.58;;;4.60;99.90;;;;;;5036162;28;20021;-83
2022/01/14 11:33:07;;;;;;;24.90;12.27;;;4.70;99.90;;;;;;5037103;28;20033;-83
2022/01/14 11:35:37;;;;;;;20.15;10.32;;;4.80;99.90;;;;;;5015079;28;20185;-83
2022/01/14 11:38:23;;;;;;;26.42;10.77;;;4.80;99.90;;;;;;5022004;28;20030;-82
2022/01/14 11:40:51;;;;;;;23.00;10.45;;;5.00;99.90;;;;;;5014091;28;20033;-81
2022/01/14 11:43:46;;;;;;;22.10;11.38;;;5.00;99.90;;;;;;5014133;28;20033;-85
2022/01/14 11:46:35;;;;;;;26.08;12.57;;;5.00;99.90;;;;;;5018589;28;20030;-85
2022/01/14 11:49:01;;;;;;;24.02;11.73;;;5.10;99.90;;;;;;5020444;28;20389;-86
2022/01/14 11:51:27;;;;;;;22.63;10.30;;;5.10;99.90;;;;;;5019619;28;20189;-86
2022/01/14 11:54:07;;;;;;;22.83;10.80;;;5.20;99.90;;;;;;5020789;28;20026;-85
2022/01/14 11:56:32;;;;;;;19.67;10.57;;;5.30;99.90;;;;;;5020368;28;20106;-84
2022/01/14 11:59:17;;;;;;;20.20;11.50;;;5.40;99.90;;;;;;5020210;28;20101;-85
2022/01/14 12:01:43;;;;;;;24.73;11.85;;;5.40;99.90;;;;;;5025792;28;20117;-84
2022/01/14 12:04:09;;;;;;;25.00;13.35;;;5.50;99.90;;;;;;5021122;28;20033;-85
2022/01/14 12:06:49;;;;;;;25.15;13.10;;;5.50;99.90;;;;;;5022491;28;20030;-84
2022/01/14 12:09:19;;;;;;;;;;;5.60;99.90;;;;;;5021534;28;20072;-86
2022/01/14 12:11:46;;;;;;;26.70;12.00;;;5.70;99.90;;;;;;5039546;28;19905;-84
2022/01/14 12:14:12;;;;;;;25.98;12.93;;;5.80;99.90;;;;;;5019068;28;20092;-84
2022/01/14 12:16:50;;;;;;;28.45;12.93;;;5.80;99.90;;;;;;5018065;28;20494;-86
2022/01/14 12:19:22;;;;;;;24.98;13.40;;;5.80;99.90;;;;;;5017865;28;20032;-84
2022/01/14 12:21:49;;;;;;;26.88;13.10;;;5.80;99.90;;;;;;5031737;28;20678;-83
2022/01/14 12:24:14;;;;;;;26.45;12.98;;;5.90;99.90;;;;;;5014640;28;20013;-80
2022/01/14 12:26:42;;;;;;;21.27;11.45;;;5.90;99.90;;;;;;5014229;28;20097;-84
2022/01/14 12:29:16;;;;;;;20.30;10.70;;;6.00;99.90;;;;;;5015313;28;20052;-81
2022/01/14 12:32:04;;;;;;;20.40;10.02;;;6.10;99.90;;;;;;5016067;28;20059;-81
2022/01/14 12:34:31;;;;;;;19.60;10.55;;;6.20;99.90;;;;;;5014725;28;20272;-83
2022/01/14 12:36:56;;;;;;;19.73;9.68;;;6.20;99.90;;;;;;5019600;28;20026;-80
2022/01/14 12:39:22;;;;;;;17.77;9.70;;;6.30;99.90;;;;;;5023009;28;20446;-81
2022/01/14 12:41:55;;;;;;;21.75;11.13;;;7.30;99.90;;;;;;5031589;28;20029;-83
2022/01/14 12:44:22;;;;;;;18.90;9.68;;;6.30;99.90;;;;;;5019793;28;20034;-81
2022/01/14 12:47:07;;;;;;;20.60;9.90;;;6.50;99.90;;;;;;5036685;28;20049;-82
2022/01/14 12:49:38;;;;;;;22.77;10.73;;;6.40;99.90;;;;;;5023941;28;20025;-82
2022/01/14 12:52:08;;;;;;;;;;;6.40;99.90;;;;;;5031437;28;20029;-82
2022/01/14 12:54:42;;;;;;;21.92;11.25;;;6.30;99.90;;;;;;5035715;28;19912;-81
2022/01/14 12:57:15;;;;;;;23.08;12.27;;;6.50;99.90;;;;;;5022959;28;20022;-84
2022/01/14 12:59:43;;;;;;;25.85;12.52;;;6.50;99.90;;;;;;5019855;28;20094;-82
2022/01/14 13:02:15;;;;;;;23.45;12.60;;;6.50;99.90;;;;;;5029440;28;20045;-81
2022/01/14 13:04:41;;;;;;;26.02;13.43;;;6.50;99.90;;;;;;5020916;28;20053;-85
2022/01/14 13:07:08;;;;;;;25.63;13.88;;;6.40;99.90;;;;;;5032996;28;20064;-82
2022/01/14 13:09:38;;;;;;;26.55;13.32;;;6.60;99.90;;;;;;5039714;28;20453;-85
2022/01/14 13:12:10;;;;;;;24.20;13.07;;;6.60;99.90;;;;;;5019493;28;20394;-82
2022/01/14 13:14:51;;;;;;;29.58;14.20;;;6.70;99.90;;;;;;5018291;28;20802;-84
2022/01/14 13:17:26;;;;;;;24.98;14.45;;;5.40;99.90;;;;;;5020561;28;20618;-84
2022/01/14 13:20:08;;;;;;;24.25;13.55;;;6.70;99.90;;;;;;5039946;28;20041;-84